Time;durP1;ratioP1;P1;durP2;ratioP2;P2;SDS_P1;SDS_P2;PMS_P1;PMS_P2;Temp;Humidity;BMP_temperature;BMP_pressure;BME280_temperature;BME280_humidity;BME280_pressure;Samples;Min_cycle;Max_cycle;Signal;HPM_P1;HPM_P2
2023/05/15 00:01:13;;;;;;;0.00;0.00;;;11.10;86.90;;;;;;5012520;28;20049;-63
2023/05/15 00:03:38;;;;;;;0.00;0.00;;;11.10;87.20;;;;;;5011969;28;20403;-62
2023/05/15 00:06:04;;;;;;;0.00;0.00;;;11.10;87.00;;;;;;5012327;28;20133;-62
2023/05/15 00:08:30;;;;;;;0.00;0.00;;;11.20;86.80;;;;;;5012282;28;20388;-62
2023/05/15 00:10:56;;;;;;;0.00;0.00;;;11.30;86.40;;;;;;5010855;28;20129;-62
2023/05/15 00:13:22;;;;;;;1.45;0.43;;;11.30;86.20;;;;;;5012010;28;20829;-63
2023/05/15 00:15:47;;;;;;;0.10;0.10;;;11.30;86.10;;;;;;5012520;28;20848;-63
2023/05/15 00:18:13;;;;;;;0.00;0.00;;;11.30;85.50;;;;;;5011948;28;20089;-63
2023/05/15 00:20:38;;;;;;;0.00;0.00;;;11.30;85.50;;;;;;5011909;28;20076;-62
2023/05/15 00:23:04;;;;;;;0.00;0.00;;;11.30;85.40;;;;;;5011927;28;20046;-62
2023/05/15 00:25:29;;;;;;;0.00;0.00;;;11.30;85.30;;;;;;5011697;28;20131;-62
2023/05/15 00:27:55;;;;;;;0.30;0.30;;;11.30;85.30;;;;;;5011890;28;20061;-62
2023/05/15 00:30:21;;;;;;;0.50;0.50;;;11.30;85.20;;;;;;5011766;28;20042;-62
2023/05/15 00:32:46;;;;;;;0.00;0.00;;;11.30;85.00;;;;;;5011990;28;20129;-61
2023/05/15 00:35:12;;;;;;;0.00;0.00;;;11.20;85.00;;;;;;5010672;28;20045;-62
2023/05/15 00:37:37;;;;;;;0.00;0.00;;;11.20;85.20;;;;;;5011403;28;20168;-62
2023/05/15 00:40:03;;;;;;;0.00;0.00;;;11.20;85.20;;;;;;5012764;28;20125;-62
2023/05/15 00:42:30;;;;;;;0.10;0.10;;;11.20;85.60;;;;;;5012343;28;20042;-62
2023/05/15 00:44:57;;;;;;;2.05;0.47;;;11.20;85.40;;;;;;5011563;28;20187;-62
2023/05/15 00:47:23;;;;;;;0.00;0.00;;;11.10;85.90;;;;;;5010789;28;20057;-62
2023/05/15 00:49:50;;;;;;;0.05;0.05;;;11.10;85.40;;;;;;5011801;28;20046;-63
2023/05/15 00:52:16;;;;;;;0.00;0.00;;;11.10;85.30;;;;;;5011312;28;20053;-62
2023/05/15 00:54:42;;;;;;;2.83;1.17;;;11.10;85.40;;;;;;5011463;28;20053;-62
2023/05/15 00:57:09;;;;;;;0.00;0.00;;;11.10;85.40;;;;;;5011406;28;20042;-62
2023/05/15 00:59:37;;;;;;;1.80;0.88;;;11.10;85.20;;;;;;5011078;28;20220;-62
2023/05/15 01:02:03;;;;;;;0.00;0.00;;;11.10;85.30;;;;;;5010180;28;20056;-62
2023/05/15 01:04:28;;;;;;;0.00;0.00;;;11.10;85.20;;;;;;5010962;28;20491;-62
2023/05/15 01:06:54;;;;;;;1.35;0.35;;;11.10;85.10;;;;;;5010186;28;20056;-62
2023/05/15 01:09:23;;;;;;;0.00;0.00;;;11.10;85.20;;;;;;5009946;28;20471;-62
2023/05/15 01:11:52;;;;;;;1.08;0.47;;;11.00;85.30;;;;;;5011126;28;20042;-62
2023/05/15 01:14:17;;;;;;;0.00;0.00;;;11.00;85.30;;;;;;4993640;28;20125;-62
2023/05/15 01:16:43;;;;;;;0.10;0.10;;;11.10;85.30;;;;;;5011110;28;20555;-64
2023/05/15 01:19:09;;;;;;;0.00;0.00;;;11.00;85.30;;;;;;5011027;28;20129;-64
2023/05/15 01:21:37;;;;;;;0.00;0.00;;;11.00;85.60;;;;;;4993341;28;20042;-64
2023/05/15 01:24:40;;;;;;;0.20;0.20;;;11.00;85.60;;;;;;5010693;28;20052;-64
2023/05/15 01:27:18;;;;;;;0.65;0.65;;;11.00;85.90;;;;;;5010758;28;20502;-64
2023/05/15 01:30:06;;;;;;;0.00;0.00;;;10.90;87.00;;;;;;5010929;28;20399;-65
2023/05/15 01:33:10;;;;;;;0.00;0.00;;;10.90;87.40;;;;;;5011113;28;20081;-65
2023/05/15 01:36:00;;;;;;;0.00;0.00;;;10.80;87.90;;;;;;5010963;28;20054;-62
2023/05/15 01:38:40;;;;;;;0.00;0.00;;;10.70;88.10;;;;;;5011716;28;20049;-62
2023/05/15 01:41:24;;;;;;;0.10;0.10;;;10.70;88.30;;;;;;5011657;28;20510;-62
2023/05/15 01:43:56;;;;;;;0.00;0.00;;;10.70;88.30;;;;;;5011714;28;20041;-63
2023/05/15 01:46:24;;;;;;;0.03;0.03;;;10.60;88.40;;;;;;5011319;28;20050;-62
2023/05/15 01:48:53;;;;;;;1.77;1.10;;;10.60;88.50;;;;;;5011360;28;20503;-62
2023/05/15 01:51:21;;;;;;;0.05;0.05;;;10.70;88.70;;;;;;5011281;28;20054;-62
2023/05/15 01:53:48;;;;;;;0.00;0.00;;;10.60;88.40;;;;;;5011573;28;20135;-65
2023/05/15 01:56:16;;;;;;;0.10;0.10;;;10.60;88.30;;;;;;5011532;28;20050;-65
2023/05/15 01:58:42;;;;;;;0.10;0.10;;;10.60;88.50;;;;;;5011223;28;20121;-65
2023/05/15 02:01:09;;;;;;;0.00;0.00;;;10.60;88.70;;;;;;5010562;28;20054;-65
2023/05/15 02:03:36;;;;;;;0.10;0.10;;;10.60;88.20;;;;;;5010003;28;20769;-64
2023/05/15 02:06:03;;;;;;;1.02;0.40;;;10.60;88.30;;;;;;5009750;28;20041;-64
2023/05/15 02:08:30;;;;;;;0.00;0.00;;;10.60;88.40;;;;;;5010105;28;20125;-62
2023/05/15 02:10:58;;;;;;;0.10;0.10;;;10.50;89.00;;;;;;5010180;28;20057;-62
2023/05/15 02:13:25;;;;;;;0.00;0.00;;;10.40;89.40;;;;;;5010081;28;20446;-62
2023/05/15 02:15:51;;;;;;;0.30;0.30;;;10.50;89.40;;;;;;5010150;28;20042;-62
2023/05/15 02:18:16;;;;;;;0.00;0.00;;;10.50;89.60;;;;;;5009519;28;20664;-62
2023/05/15 02:20:42;;;;;;;0.00;0.00;;;10.50;89.60;;;;;;5010216;28;20049;-61
2023/05/15 02:23:08;;;;;;;0.15;0.15;;;10.60;89.50;;;;;;5010187;28;20422;-62
2023/05/15 02:25:59;;;;;;;0.00;0.00;;;10.60;89.60;;;;;;5009450;28;20050;-62
2023/05/15 02:28:35;;;;;;;0.00;0.00;;;10.60;89.30;;;;;;4991444;28;20054;-61
2023/05/15 02:31:06;;;;;;;0.00;0.00;;;10.70;89.10;;;;;;5010065;28;20411;-62
2023/05/15 02:33:39;;;;;;;0.00;0.00;;;10.80;89.40;;;;;;5009857;28;20053;-62
2023/05/15 02:36:08;;;;;;;0.10;0.10;;;10.80;89.50;;;;;;5009424;28;20513;-62
2023/05/15 02:38:40;;;;;;;0.10;0.10;;;10.80;89.30;;;;;;5009860;28;20065;-62
2023/05/15 02:41:06;;;;;;;0.20;0.20;;;10.70;89.40;;;;;;5009827;28;20112;-62
2023/05/15 02:43:35;;;;;;;0.00;0.00;;;10.80;89.50;;;;;;5009603;28;20053;-62
2023/05/15 02:46:02;;;;;;;0.00;0.00;;;10.70;89.50;;;;;;5009734;28;20135;-62
2023/05/15 02:48:28;;;;;;;0.03;0.03;;;10.70;89.40;;;;;;5012394;28;20086;-62
2023/05/15 02:50:54;;;;;;;0.00;0.00;;;10.70;89.40;;;;;;5012415;28;20498;-64
2023/05/15 02:53:20;;;;;;;0.00;0.00;;;10.70;89.40;;;;;;5012490;28;20053;-64
2023/05/15 02:55:45;;;;;;;0.00;0.00;;;10.70;89.40;;;;;;5013815;28;20415;-64
2023/05/15 02:58:11;;;;;;;0.00;0.00;;;10.70;89.20;;;;;;5013835;28;20045;-64
2023/05/15 03:00:36;;;;;;;0.00;0.00;;;10.70;88.90;;;;;;5013805;28;20057;-64
2023/05/15 03:03:02;;;;;;;0.00;0.00;;;10.70;89.00;;;;;;5013398;28;20053;-64
2023/05/15 03:05:28;;;;;;;0.00;0.00;;;10.70;88.90;;;;;;5012418;28;20050;-64
2023/05/15 03:07:53;;;;;;;0.10;0.10;;;10.60;88.80;;;;;;5011988;28;20406;-64
2023/05/15 03:10:22;;;;;;;0.00;0.00;;;10.60;88.70;;;;;;4995712;28;20049;-64
2023/05/15 03:12:48;;;;;;;0.00;0.00;;;10.60;88.60;;;;;;5013544;28;20050;-64
2023/05/15 03:15:13;;;;;;;0.10;0.10;;;10.60;88.50;;;;;;5013444;28;20048;-64
2023/05/15 03:17:39;;;;;;;0.10;0.10;;;10.60;88.60;;;;;;5013200;28;20045;-64
2023/05/15 03:20:05;;;;;;;0.00;0.00;;;10.50;88.70;;;;;;5012934;28;20050;-65
2023/05/15 03:22:31;;;;;;;0.57;0.57;;;10.40;88.70;;;;;;5013321;28;20129;-64
2023/05/15 03:24:56;;;;;;;0.20;0.20;;;10.40;88.80;;;;;;5013047;28;20137;-64
2023/05/15 03:27:22;;;;;;;0.20;0.20;;;10.30;88.80;;;;;;5012860;28;20042;-64
2023/05/15 03:29:49;;;;;;;0.00;0.00;;;10.30;89.00;;;;;;5012907;28;20558;-64
2023/05/15 03:32:16;;;;;;;0.10;0.10;;;10.30;88.70;;;;;;5013311;28;20049;-62
2023/05/15 03:34:41;;;;;;;0.05;0.05;;;10.30;88.80;;;;;;5013077;28;20451;-62
2023/05/15 03:37:07;;;;;;;0.00;0.00;;;10.30;88.80;;;;;;5012782;28;20164;-64
2023/05/15 03:39:32;;;;;;;0.00;0.00;;;10.30;88.50;;;;;;5012840;28;20128;-64
2023/05/15 03:41:58;;;;;;;0.00;0.00;;;10.30;88.40;;;;;;5012854;28;20045;-64
2023/05/15 03:44:23;;;;;;;0.00;0.00;;;10.30;88.40;;;;;;5012448;28;20052;-64
2023/05/15 03:46:49;;;;;;;0.00;0.00;;;10.30;88.40;;;;;;5012360;28;20045;-64
2023/05/15 03:49:15;;;;;;;0.00;0.00;;;10.30;88.10;;;;;;5011103;28;20054;-65
2023/05/15 03:51:40;;;;;;;0.00;0.00;;;10.40;88.10;;;;;;5011141;28;20064;-64
2023/05/15 03:54:06;;;;;;;0.00;0.00;;;10.40;88.00;;;;;;5012497;28;20141;-62
2023/05/15 03:56:32;;;;;;;0.00;0.00;;;10.40;87.80;;;;;;5012204;28;20104;-62
2023/05/15 03:58:58;;;;;;;0.00;0.00;;;10.40;87.70;;;;;;5011818;28;20549;-62
2023/05/15 04:01:23;;;;;;;0.10;0.10;;;10.40;87.70;;;;;;5012335;28;20043;-62
2023/05/15 04:03:49;;;;;;;0.00;0.00;;;10.40;87.50;;;;;;5012297;28;20038;-62
2023/05/15 04:06:14;;;;;;;0.10;0.10;;;10.40;87.40;;;;;;5012127;28;20046;-61
2023/05/15 04:08:40;;;;;;;0.00;0.00;;;10.40;87.50;;;;;;5012149;28;20042;-62
2023/05/15 04:11:06;;;;;;;0.00;0.00;;;10.50;87.50;;;;;;5011870;28;20049;-62
2023/05/15 04:13:31;;;;;;;0.00;0.00;;;10.50;87.60;;;;;;5012797;28;20077;-62
2023/05/15 04:15:58;;;;;;;0.00;0.00;;;10.50;87.70;;;;;;5013007;28;20042;-62
2023/05/15 04:18:24;;;;;;;0.00;0.00;;;10.60;87.70;;;;;;5012243;28;20053;-62
2023/05/15 04:20:51;;;;;;;0.00;0.00;;;10.60;87.50;;;;;;5012008;28;20048;-62
2023/05/15 04:23:17;;;;;;;0.00;0.00;;;10.60;87.50;;;;;;5010329;28;20501;-62
2023/05/15 04:25:45;;;;;;;0.00;0.00;;;10.60;87.40;;;;;;5011980;28;20068;-62
2023/05/15 04:28:11;;;;;;;0.00;0.00;;;10.70;87.40;;;;;;5011645;28;20487;-62
2023/05/15 04:30:37;;;;;;;0.00;0.00;;;10.80;87.40;;;;;;5011203;28;20133;-62
2023/05/15 04:33:03;;;;;;;0.00;0.00;;;10.80;87.30;;;;;;5011935;28;20133;-62
2023/05/15 04:35:29;;;;;;;0.00;0.00;;;10.90;87.30;;;;;;5011843;28;20076;-61
2023/05/15 04:37:55;;;;;;;0.00;0.00;;;10.90;87.30;;;;;;5011812;28;20077;-62
2023/05/15 04:40:20;;;;;;;0.00;0.00;;;11.00;87.20;;;;;;5011454;28;20448;-61
2023/05/15 04:42:46;;;;;;;0.00;0.00;;;10.90;87.30;;;;;;5011541;28;20491;-62
2023/05/15 04:45:12;;;;;;;0.00;0.00;;;10.90;87.50;;;;;;5011495;28;20132;-62
2023/05/15 04:47:38;;;;;;;0.00;0.00;;;10.90;87.60;;;;;;5011304;28;20411;-62
2023/05/15 04:50:04;;;;;;;0.00;0.00;;;11.00;87.60;;;;;;5011530;28;20053;-62
2023/05/15 04:52:29;;;;;;;0.00;0.00;;;10.90;87.60;;;;;;5010991;28;20096;-62
2023/05/15 04:54:55;;;;;;;0.00;0.00;;;10.90;87.80;;;;;;5011487;28;20049;-62
2023/05/15 04:57:21;;;;;;;0.00;0.00;;;10.90;87.80;;;;;;5011010;28;20058;-62
2023/05/15 04:59:46;;;;;;;0.00;0.00;;;10.80;87.90;;;;;;5011515;28;20112;-62
2023/05/15 05:02:12;;;;;;;0.00;0.00;;;10.80;87.90;;;;;;5011026;28;20046;-62
2023/05/15 05:04:37;;;;;;;0.00;0.00;;;10.80;88.00;;;;;;5010855;28;20388;-62
2023/05/15 05:07:04;;;;;;;0.00;0.00;;;10.80;87.80;;;;;;5009831;28;20046;-62
2023/05/15 05:09:30;;;;;;;0.10;0.10;;;10.80;87.90;;;;;;5010526;28;20058;-62
2023/05/15 05:11:58;;;;;;;0.00;0.00;;;10.80;87.80;;;;;;5010699;28;20165;-61
2023/05/15 05:14:25;;;;;;;0.00;0.00;;;10.90;87.70;;;;;;5010916;28;20073;-61
2023/05/15 05:16:50;;;;;;;0.25;0.25;;;10.90;87.50;;;;;;5012088;28;20042;-62
2023/05/15 05:19:16;;;;;;;0.00;0.00;;;11.00;87.30;;;;;;5011597;28;20096;-62
2023/05/15 05:21:41;;;;;;;0.00;0.00;;;11.00;87.30;;;;;;5010750;28;20533;-62
2023/05/15 05:24:07;;;;;;;0.00;0.00;;;11.00;87.50;;;;;;5009667;28;20140;-62
2023/05/15 05:26:32;;;;;;;0.00;0.00;;;11.10;87.40;;;;;;5010407;28;20049;-62
2023/05/15 05:28:58;;;;;;;0.00;0.00;;;11.10;87.50;;;;;;5010562;28;20046;-62
2023/05/15 05:31:24;;;;;;;0.00;0.00;;;11.20;87.40;;;;;;5010398;28;20042;-62
2023/05/15 05:33:51;;;;;;;0.00;0.00;;;11.20;87.50;;;;;;5009755;28;20053;-61
2023/05/15 05:36:17;;;;;;;0.00;0.00;;;11.20;87.50;;;;;;5010590;28;20119;-62
2023/05/15 05:38:42;;;;;;;0.00;0.00;;;11.30;87.40;;;;;;5009658;28;20437;-62
2023/05/15 05:41:08;;;;;;;0.00;0.00;;;11.20;87.30;;;;;;5010480;28;20093;-62
2023/05/15 05:43:33;;;;;;;0.00;0.00;;;11.30;87.20;;;;;;5009037;28;20111;-62
2023/05/15 05:46:00;;;;;;;0.00;0.00;;;11.30;87.00;;;;;;5010364;28;20038;-62
2023/05/15 05:48:25;;;;;;;0.00;0.00;;;11.40;86.90;;;;;;5010223;28;20072;-62
2023/05/15 05:50:51;;;;;;;0.10;0.10;;;11.40;86.80;;;;;;5010457;28;20042;-62
2023/05/15 05:53:17;;;;;;;0.00;0.00;;;11.50;86.50;;;;;;5008902;28;20057;-62
2023/05/15 05:55:43;;;;;;;0.00;0.00;;;11.50;86.40;;;;;;5011267;28;20153;-62
2023/05/15 05:58:08;;;;;;;0.00;0.00;;;11.60;86.40;;;;;;5010431;28;20038;-62
2023/05/15 06:00:34;;;;;;;0.00;0.00;;;11.60;86.50;;;;;;5009320;28;20765;-62
2023/05/15 06:03:00;;;;;;;0.00;0.00;;;11.60;86.50;;;;;;5009972;28;20052;-62
2023/05/15 06:05:26;;;;;;;1.98;0.40;;;11.70;86.20;;;;;;5010121;28;20042;-62
2023/05/15 06:07:55;;;;;;;0.70;0.70;;;11.60;85.90;;;;;;5010201;28;20042;-63
2023/05/15 06:10:21;;;;;;;0.00;0.00;;;11.60;86.10;;;;;;5009538;28;20042;-62
2023/05/15 06:12:47;;;;;;;0.10;0.10;;;11.80;86.00;;;;;;5008884;28;20096;-62
2023/05/15 06:15:15;;;;;;;0.00;0.00;;;11.80;85.60;;;;;;5009083;28;20042;-62
2023/05/15 06:17:41;;;;;;;0.00;0.00;;;11.80;85.60;;;;;;5010080;28;20121;-62
2023/05/15 06:20:07;;;;;;;1.35;1.00;;;11.80;85.40;;;;;;5008663;28;20053;-62
2023/05/15 06:22:33;;;;;;;0.73;0.52;;;11.90;85.40;;;;;;5009371;28;20042;-63
2023/05/15 06:25:00;;;;;;;0.20;0.20;;;11.90;85.20;;;;;;5009855;28;20080;-62
2023/05/15 06:27:26;;;;;;;0.00;0.00;;;11.80;84.90;;;;;;5009777;28;20048;-62
2023/05/15 06:29:52;;;;;;;0.00;0.00;;;11.80;85.20;;;;;;5009829;28;20049;-62
2023/05/15 06:32:17;;;;;;;0.03;0.03;;;11.80;85.00;;;;;;5008123;28;20487;-62
2023/05/15 06:34:43;;;;;;;0.00;0.00;;;11.90;84.50;;;;;;5009937;28;20049;-62
2023/05/15 06:37:08;;;;;;;0.10;0.10;;;11.90;84.40;;;;;;5009851;28;20088;-63
2023/05/15 06:39:34;;;;;;;0.08;0.08;;;12.00;84.30;;;;;;5008168;28;20143;-62
2023/05/15 06:42:00;;;;;;;0.75;0.30;;;12.00;84.10;;;;;;4991681;28;20117;-62
2023/05/15 06:44:35;;;;;;;0.00;0.00;;;12.10;83.90;;;;;;5009559;28;20057;-63
2023/05/15 06:47:00;;;;;;;0.00;0.00;;;12.10;83.60;;;;;;5008267;28;20060;-63
2023/05/15 06:49:26;;;;;;;0.00;0.00;;;12.20;83.40;;;;;;5008583;28;20054;-63
2023/05/15 06:51:53;;;;;;;0.00;0.00;;;12.20;82.80;;;;;;5009538;28;20049;-64
2023/05/15 06:54:19;;;;;;;0.00;0.00;;;12.20;82.90;;;;;;5009205;28;20056;-62
2023/05/15 06:56:45;;;;;;;0.00;0.00;;;12.10;82.50;;;;;;5009712;28;20120;-62
2023/05/15 06:59:10;;;;;;;0.00;0.00;;;12.10;81.90;;;;;;5008548;28;20403;-62
2023/05/15 07:01:37;;;;;;;0.00;0.00;;;12.10;82.40;;;;;;4991960;28;20052;-62
2023/05/15 07:04:03;;;;;;;0.00;0.00;;;12.00;82.40;;;;;;5009283;28;20487;-62
2023/05/15 07:06:30;;;;;;;0.05;0.05;;;12.00;82.70;;;;;;5009169;28;20053;-62
2023/05/15 07:08:59;;;;;;;1.13;0.47;;;12.00;82.60;;;;;;5009595;28;20058;-62
2023/05/15 07:11:25;;;;;;;0.28;0.28;;;12.10;82.80;;;;;;5008278;28;20133;-62
2023/05/15 07:13:52;;;;;;;0.00;0.00;;;12.20;82.70;;;;;;5009471;28;20081;-62
2023/05/15 07:16:17;;;;;;;0.98;0.63;;;12.30;82.60;;;;;;5008962;28;20046;-62
2023/05/15 07:18:43;;;;;;;4.07;0.57;;;12.30;82.30;;;;;;5009195;28;20046;-62
2023/05/15 07:21:08;;;;;;;0.00;0.00;;;12.30;81.20;;;;;;5009473;28;20049;-62
2023/05/15 07:23:34;;;;;;;0.20;0.20;;;12.30;81.20;;;;;;5009347;28;20136;-62
2023/05/15 07:26:00;;;;;;;0.00;0.00;;;12.40;81.30;;;;;;5008743;28;20073;-62
2023/05/15 07:28:25;;;;;;;0.20;0.15;;;12.40;81.00;;;;;;5009201;28;20046;-62
2023/05/15 07:30:51;;;;;;;0.00;0.00;;;12.50;81.30;;;;;;5008055;28;20042;-64
2023/05/15 07:33:17;;;;;;;0.05;0.05;;;12.60;81.40;;;;;;5009933;28;20487;-64
2023/05/15 07:35:42;;;;;;;0.00;0.00;;;12.70;81.40;;;;;;5012884;28;20125;-63
2023/05/15 07:38:08;;;;;;;0.43;0.35;;;12.80;81.50;;;;;;5012723;28;20517;-62
2023/05/15 07:40:34;;;;;;;0.68;0.60;;;12.90;80.50;;;;;;5012794;28;20054;-62
2023/05/15 07:42:59;;;;;;;0.45;0.45;;;13.10;81.00;;;;;;5012687;28;20046;-62
2023/05/15 07:45:25;;;;;;;0.10;0.10;;;13.10;81.10;;;;;;4995219;28;20471;-62
2023/05/15 07:47:51;;;;;;;0.30;0.30;;;13.20;80.50;;;;;;5012391;28;20092;-62
2023/05/15 07:50:17;;;;;;;0.00;0.00;;;13.30;80.40;;;;;;5012715;28;20132;-62
2023/05/15 07:52:43;;;;;;;0.47;0.47;;;13.30;80.40;;;;;;5012543;28;20077;-62
2023/05/15 07:55:09;;;;;;;0.08;0.08;;;13.40;80.60;;;;;;5012876;28;20045;-62
2023/05/15 07:57:35;;;;;;;0.00;0.00;;;13.40;80.20;;;;;;5012162;28;20051;-62
2023/05/15 08:00:09;;;;;;;0.45;0.45;;;13.50;79.90;;;;;;5012532;28;20562;-62
2023/05/15 08:02:34;;;;;;;0.00;0.00;;;13.50;80.00;;;;;;5012445;28;20495;-61
2023/05/15 08:05:00;;;;;;;0.10;0.10;;;13.60;80.20;;;;;;5011569;28;20053;-62
2023/05/15 08:07:26;;;;;;;0.20;0.20;;;13.60;79.80;;;;;;5011626;28;20140;-62
2023/05/15 08:09:51;;;;;;;0.00;0.00;;;13.60;79.50;;;;;;5012167;28;20038;-62
2023/05/15 08:12:19;;;;;;;0.00;0.00;;;13.70;79.50;;;;;;5012164;28;20046;-62
2023/05/15 08:14:47;;;;;;;0.00;0.00;;;13.70;78.50;;;;;;5012031;28;20579;-62
2023/05/15 08:17:13;;;;;;;1.40;0.93;;;13.70;78.90;;;;;;5012246;28;20045;-62
2023/05/15 08:19:38;;;;;;;0.38;0.38;;;13.70;78.00;;;;;;5011541;28;20465;-62
2023/05/15 08:22:04;;;;;;;0.00;0.00;;;13.80;78.80;;;;;;5011858;28;20042;-62
2023/05/15 08:24:30;;;;;;;0.00;0.00;;;13.90;79.10;;;;;;5011995;28;20046;-62
2023/05/15 08:26:55;;;;;;;0.00;0.00;;;14.00;79.00;;;;;;5011946;28;20148;-62
2023/05/15 08:29:21;;;;;;;0.00;0.00;;;14.00;78.80;;;;;;5011397;28;20077;-62
2023/05/15 08:31:47;;;;;;;0.20;0.20;;;13.90;78.30;;;;;;5011727;28;20057;-62
2023/05/15 08:34:12;;;;;;;0.00;0.00;;;14.00;79.00;;;;;;5011916;28;20511;-62
2023/05/15 08:36:38;;;;;;;0.00;0.00;;;14.00;78.60;;;;;;5010436;28;20042;-62
2023/05/15 08:39:03;;;;;;;1.02;0.63;;;14.10;78.20;;;;;;5011591;28;20045;-62
2023/05/15 08:41:46;;;;;;;0.00;0.00;;;14.10;78.30;;;;;;5011058;28;20069;-62
2023/05/15 08:44:12;;;;;;;1.23;0.55;;;14.30;78.60;;;;;;5011287;28;20523;-62
2023/05/15 08:46:38;;;;;;;0.10;0.10;;;14.20;76.00;;;;;;4993895;28;20047;-62
2023/05/15 08:49:20;;;;;;;0.03;0.03;;;14.30;77.00;;;;;;5011214;28;20065;-62
2023/05/15 08:51:47;;;;;;;0.13;0.13;;;14.30;77.30;;;;;;5011195;28;20050;-62
2023/05/15 08:54:13;;;;;;;0.00;0.00;;;14.40;77.70;;;;;;5010976;28;20049;-62
2023/05/15 08:56:40;;;;;;;0.00;0.00;;;14.50;77.20;;;;;;5011223;28;20180;-62
2023/05/15 08:59:05;;;;;;;0.03;0.03;;;14.60;77.80;;;;;;5011143;28;20042;-62
2023/05/15 09:01:32;;;;;;;0.00;0.00;;;14.60;77.50;;;;;;5011276;28;20058;-62
2023/05/15 09:03:58;;;;;;;0.43;0.38;;;14.70;76.40;;;;;;5011087;28;20180;-62
2023/05/15 09:06:24;;;;;;;0.00;0.00;;;14.70;76.50;;;;;;5010703;28;20141;-62
2023/05/15 09:08:54;;;;;;;0.10;0.10;;;14.60;73.80;;;;;;5011293;28;20538;-62
2023/05/15 09:11:23;;;;;;;0.20;0.20;;;14.60;75.20;;;;;;5010794;28;20042;-62
2023/05/15 09:13:49;;;;;;;0.00;0.00;;;14.70;75.10;;;;;;5011118;28;20087;-62
2023/05/15 09:16:15;;;;;;;0.00;0.00;;;14.70;74.00;;;;;;5010610;28;20515;-62
2023/05/15 09:18:40;;;;;;;0.00;0.00;;;14.60;75.10;;;;;;5010780;28;20050;-62
2023/05/15 09:21:27;;;;;;;0.00;0.00;;;14.60;75.30;;;;;;5009622;28;20458;-62
2023/05/15 09:24:13;;;;;;;0.10;0.10;;;14.70;75.70;;;;;;5010463;28;20115;-62
2023/05/15 09:26:39;;;;;;;0.20;0.20;;;14.60;74.30;;;;;;5010050;28;20419;-61
2023/05/15 09:29:05;;;;;;;0.00;0.00;;;14.50;74.20;;;;;;5011557;28;20064;-63
2023/05/15 09:31:30;;;;;;;0.00;0.00;;;14.60;75.40;;;;;;5011624;28;20042;-62
2023/05/15 09:34:00;;;;;;;0.00;0.00;;;14.50;75.10;;;;;;5010446;28;20038;-63
2023/05/15 09:36:27;;;;;;;0.00;0.00;;;14.50;76.40;;;;;;5010451;28;20081;-62
2023/05/15 09:38:58;;;;;;;0.00;0.00;;;14.50;76.80;;;;;;5010657;28;20457;-62
2023/05/15 09:41:25;;;;;;;0.00;0.00;;;14.50;76.10;;;;;;5010566;28;20447;-62
2023/05/15 09:43:52;;;;;;;0.05;0.05;;;14.50;75.90;;;;;;5010580;28;20127;-62
2023/05/15 09:46:17;;;;;;;0.00;0.00;;;14.50;76.50;;;;;;5010367;28;20057;-62
2023/05/15 09:48:43;;;;;;;1.45;0.77;;;14.50;76.80;;;;;;5008801;28;20042;-63
2023/05/15 09:51:16;;;;;;;2.72;1.65;;;14.60;76.20;;;;;;5010215;28;20119;-62
2023/05/15 09:53:50;;;;;;;0.25;0.25;;;14.60;76.50;;;;;;5009996;28;20498;-62
2023/05/15 09:56:16;;;;;;;0.40;0.38;;;14.60;76.30;;;;;;5009990;28;20175;-62
2023/05/15 09:58:53;;;;;;;0.10;0.10;;;14.40;75.40;;;;;;5010247;28;20224;-63
2023/05/15 10:01:20;;;;;;;1.85;1.23;;;14.40;76.10;;;;;;5009504;28;20053;-62
2023/05/15 10:03:59;;;;;;;0.00;0.00;;;14.30;76.10;;;;;;5010196;28;20493;-62
2023/05/15 10:06:25;;;;;;;0.00;0.00;;;14.30;75.50;;;;;;5009997;28;20606;-62
2023/05/15 10:08:53;;;;;;;0.10;0.10;;;14.40;76.20;;;;;;5009959;28;20074;-63
2023/05/15 10:11:22;;;;;;;0.00;0.00;;;14.30;75.50;;;;;;5009708;28;20045;-62
2023/05/15 10:13:48;;;;;;;0.00;0.00;;;14.30;76.20;;;;;;5009678;28;20057;-65
2023/05/15 10:16:14;;;;;;;0.10;0.10;;;14.40;75.60;;;;;;5009986;28;20495;-63
2023/05/15 10:18:40;;;;;;;0.00;0.00;;;14.30;75.70;;;;;;5009818;28;20045;-62
2023/05/15 10:21:08;;;;;;;0.57;0.52;;;14.30;76.20;;;;;;5010022;28;20515;-62
2023/05/15 10:23:36;;;;;;;0.00;0.00;;;14.30;76.30;;;;;;5008415;28;20137;-62
2023/05/15 10:26:07;;;;;;;0.10;0.10;;;14.40;76.50;;;;;;5009714;28;20054;-62
2023/05/15 10:28:34;;;;;;;0.00;0.00;;;14.40;75.50;;;;;;5008330;28;20101;-62
2023/05/15 10:31:02;;;;;;;0.00;0.00;;;14.50;75.80;;;;;;5009724;28;20088;-62
2023/05/15 10:33:28;;;;;;;0.03;0.03;;;14.40;75.40;;;;;;5008340;28;20751;-62
2023/05/15 10:35:57;;;;;;;0.13;0.13;;;14.30;74.00;;;;;;5009691;28;20061;-63
2023/05/15 10:38:23;;;;;;;0.00;0.00;;;14.30;76.40;;;;;;5009523;28;20050;-62
2023/05/15 10:40:51;;;;;;;0.13;0.13;;;14.30;76.00;;;;;;5009311;28;20042;-62
2023/05/15 10:43:19;;;;;;;1.55;0.77;;;14.50;76.40;;;;;;5009494;28;20045;-62
2023/05/15 10:45:46;;;;;;;1.35;0.52;;;14.50;75.00;;;;;;5009673;28;20077;-62
2023/05/15 10:48:14;;;;;;;0.13;0.13;;;14.60;75.30;;;;;;5008055;28;20061;-62
2023/05/15 10:50:40;;;;;;;0.00;0.00;;;14.60;74.80;;;;;;5009201;28;20058;-62
2023/05/15 10:53:08;;;;;;;0.00;0.00;;;14.80;75.20;;;;;;5009583;28;20042;-62
2023/05/15 10:55:34;;;;;;;0.40;0.40;;;14.90;74.20;;;;;;5009553;28;20057;-62
2023/05/15 10:58:00;;;;;;;0.10;0.10;;;14.90;74.40;;;;;;5009455;28;20513;-62
2023/05/15 11:00:30;;;;;;;0.10;0.10;;;14.90;74.80;;;;;;5009447;28;20038;-61
2023/05/15 11:02:57;;;;;;;0.45;0.40;;;14.90;75.00;;;;;;5008370;28;20495;-62
2023/05/15 11:05:24;;;;;;;0.00;0.00;;;14.70;74.50;;;;;;5009167;28;20072;-62
2023/05/15 11:08:16;;;;;;;0.00;0.00;;;14.60;74.70;;;;;;5010223;28;20046;-62
2023/05/15 11:10:42;;;;;;;;;;;14.50;74.90;;;;;;5013778;28;20060;-62
2023/05/15 11:13:07;;;;;;;0.00;0.00;;;14.50;75.70;;;;;;5013332;28;19925;-63
2023/05/15 11:15:43;;;;;;;0.00;0.00;;;14.50;76.00;;;;;;5013377;28;20045;-62
2023/05/15 11:18:09;;;;;;;1.00;0.13;;;14.60;76.10;;;;;;5012740;28;20080;-63
2023/05/15 11:21:00;;;;;;;0.55;0.55;;;14.50;76.50;;;;;;5013433;28;20526;-62
2023/05/15 11:23:26;;;;;;;0.00;0.00;;;14.60;76.30;;;;;;5010817;28;20410;-62
2023/05/15 11:25:54;;;;;;;0.25;0.25;;;14.30;74.80;;;;;;5013150;28;20041;-62
2023/05/15 11:28:21;;;;;;;0.10;0.10;;;14.30;76.20;;;;;;5012764;28;20134;-62
2023/05/15 11:30:51;;;;;;;0.00;0.00;;;14.30;76.40;;;;;;5012740;28;20499;-62
2023/05/15 11:33:18;;;;;;;0.00;0.00;;;14.20;75.70;;;;;;5013037;28;20045;-62
2023/05/15 11:35:46;;;;;;;0.43;0.43;;;14.10;76.00;;;;;;5013032;28;20042;-62
2023/05/15 11:38:23;;;;;;;0.00;0.00;;;14.00;76.10;;;;;;5012991;28;20049;-62
2023/05/15 11:41:01;;;;;;;0.00;0.00;;;14.10;75.90;;;;;;5013088;28;20122;-63
2023/05/15 11:43:32;;;;;;;0.10;0.10;;;13.90;76.50;;;;;;5012749;28;20054;-62
2023/05/15 11:46:08;;;;;;;0.03;0.03;;;13.90;76.50;;;;;;5012578;28;20081;-61
2023/05/15 11:48:42;;;;;;;0.00;0.00;;;14.00;77.20;;;;;;5012834;28;20541;-62
2023/05/15 11:51:16;;;;;;;0.22;0.22;;;14.10;76.60;;;;;;5011299;28;20054;-63
2023/05/15 11:53:42;;;;;;;0.00;0.00;;;14.10;76.00;;;;;;5012632;28;20082;-62
2023/05/15 11:56:12;;;;;;;0.10;0.10;;;14.10;75.80;;;;;;5013267;28;20080;-62
2023/05/15 11:58:38;;;;;;;0.00;0.00;;;14.10;75.90;;;;;;5012648;28;20046;-63
2023/05/15 12:01:03;;;;;;;0.05;0.05;;;14.10;75.90;;;;;;5012167;28;20034;-62
2023/05/15 12:03:36;;;;;;;0.30;0.30;;;14.10;75.50;;;;;;5012537;28;20042;-62
2023/05/15 12:06:02;;;;;;;1.77;1.15;;;14.10;76.00;;;;;;5011698;28;20129;-67
2023/05/15 12:08:36;;;;;;;0.00;0.00;;;14.60;79.80;;;;;;5010828;28;20129;-68
2023/05/15 12:11:02;;;;;;;0.10;0.10;;;14.80;77.90;;;;;;4994791;28;20057;-71
2023/05/15 12:13:29;;;;;;;0.10;0.10;;;15.10;76.50;;;;;;5010856;28;20049;-71
2023/05/15 12:15:55;;;;;;;0.00;0.00;;;15.30;75.90;;;;;;5010808;28;20062;-70
2023/05/15 12:18:21;;;;;;;0.00;0.00;;;15.40;74.20;;;;;;5010313;28;20053;-70
2023/05/15 12:20:48;;;;;;;0.10;0.10;;;15.20;73.80;;;;;;5010637;28;20399;-73
2023/05/15 12:23:15;;;;;;;0.08;0.08;;;15.10;72.90;;;;;;5011894;28;20053;-70
2023/05/15 12:25:43;;;;;;;0.20;0.20;;;15.10;74.50;;;;;;5010524;28;20104;-69
2023/05/15 12:28:10;;;;;;;0.00;0.00;;;15.10;74.90;;;;;;5010585;28;20045;-63
2023/05/15 12:30:36;;;;;;;0.10;0.10;;;15.10;73.10;;;;;;5010559;28;20096;-63
2023/05/15 12:33:04;;;;;;;0.05;0.05;;;15.00;74.30;;;;;;5011385;28;20045;-63
2023/05/15 12:35:33;;;;;;;0.10;0.10;;;14.60;76.00;;;;;;5010634;28;20060;-67
2023/05/15 12:38:03;;;;;;;0.00;0.00;;;14.50;76.70;;;;;;5010677;28;20042;-66
2023/05/15 12:40:33;;;;;;;0.00;0.00;;;14.40;76.80;;;;;;5011683;28;20383;-66
2023/05/15 12:43:04;;;;;;;0.20;0.20;;;14.30;76.60;;;;;;5011550;28;20486;-66
2023/05/15 12:45:31;;;;;;;0.00;0.00;;;14.30;77.20;;;;;;5011560;28;20061;-66
2023/05/15 12:47:58;;;;;;;0.98;0.63;;;14.20;77.40;;;;;;5011420;28;20061;-67
2023/05/15 12:50:25;;;;;;;0.00;0.00;;;14.10;77.50;;;;;;5011336;28;20061;-64